Rechercher aéroport 
image banner adimage banner ad
image banner ad

SVBE - San Benito

Situé à Zulia, Venezuela

ICAO - SVBE, IATA -

Données fournies par Airmate  

Information générale

Coordonnées: N10°18'48" W72°3'48"
Élévation : 249 feet MSL.
 
Voir autres Aéroports à Zulia

Données opérationnelles

Accessible au public
Heure actuelle UTC:
Heure actuelle locale:
Météo à : SVMC - Maracaibo / La Chinita Intl ( 46 km )
METAR: SVMC 201302Z AUTO 24008KT NCD 26/23 Q1010
TAF: TAF SVMC 201000Z 2012/2112 00000KT 9999 BKN013 TX35/2019Z TN24/2008Z TEMPO 2012/2014 16005KT 9000 DZ BKN013 FM201500 08006KT 9999 SCT013
Voir NOTAMs / SUP AIP / TFR affectant cet aéroport [VIEW]
Fréquences de communication: [VIEW]

Pistes:

Identifiant RWYQFULongueur (ft)Largeur (ft)SurfaceLDA (ft)
0200
2000

Coordonnées de l'aéroport

Adresse: Zulia Venezuela

Vue satellite de SVBE